createdAt,value
2019-01-31T00:00:59.488Z,55.43
2019-01-31T00:05:53.189Z,57.60
2019-01-31T00:11:01.065Z,51.87
2019-01-31T00:15:55.851Z,53.97
2019-01-31T00:20:46.725Z,60.13
2019-01-31T00:25:45.462Z,58.50
2019-01-31T00:30:41.993Z,53.13
2019-01-31T00:35:37.855Z,59.80
2019-01-31T00:40:29.670Z,53.83
2019-01-31T00:45:20.541Z,58.80
2019-01-31T00:55:41.601Z,56.00
2019-01-31T01:00:40.509Z,53.77
2019-01-31T01:11:03.488Z,54.85
2019-01-31T01:21:19.277Z,52.20
2019-01-31T01:26:27.124Z,50.80
2019-01-31T01:31:24.378Z,49.20
2019-01-31T01:36:16.061Z,58.95
2019-01-31T01:41:16.213Z,53.92
2019-01-31T01:46:15.118Z,50.07
2019-01-31T01:51:26.967Z,58.70
2019-01-31T01:56:19.427Z,52.33
2019-01-31T02:01:23.057Z,51.57
2019-01-31T02:06:20.007Z,51.93
2019-01-31T02:11:22.729Z,49.07
2019-01-31T02:16:20.910Z,56.63
2019-01-31T02:21:12.740Z,50.10
2019-01-31T02:26:05.611Z,55.60
2019-01-31T02:31:10.537Z,55.83
2019-01-31T02:36:19.417Z,51.95
2019-01-31T02:41:13.246Z,47.53
2019-01-31T02:46:08.893Z,50.10
2019-01-31T02:51:06.590Z,49.50
2019-01-31T02:56:00.239Z,43.57
2019-01-31T03:00:59.926Z,48.30
2019-01-31T03:11:10.590Z,48.00
2019-01-31T03:21:54.153Z,46.58
2019-01-31T03:26:49.409Z,46.00
2019-01-31T03:31:49.639Z,46.33
2019-01-31T03:36:51.718Z,43.53
2019-01-31T03:41:42.692Z,45.13
2019-01-31T03:46:33.601Z,39.93
2019-01-31T03:51:27.323Z,44.50
2019-01-31T03:56:21.996Z,42.03
2019-01-31T04:01:22.171Z,44.40
2019-01-31T04:06:13.879Z,36.27
2019-01-31T04:11:04.786Z,42.73
2019-01-31T04:15:55.730Z,41.40
2019-01-31T04:20:46.654Z,43.63
2019-01-31T04:25:38.299Z,38.70
2019-01-31T04:30:29.939Z,44.53
2019-01-31T04:35:21.650Z,39.63
2019-01-31T04:40:12.550Z,36.37
2019-01-31T04:45:03.453Z,42.63
2019-01-31T04:49:54.394Z,35.57
2019-01-31T04:54:45.308Z,33.67
2019-01-31T04:59:36.211Z,38.70
2019-01-31T05:04:27.138Z,38.00
2019-01-31T05:09:18.108Z,34.03
2019-01-31T05:14:09.805Z,36.07
2019-01-31T05:19:00.714Z,38.80
2019-01-31T05:23:51.655Z,39.20
2019-01-31T05:28:42.654Z,35.30
2019-01-31T05:33:33.579Z,37.13
2019-01-31T05:38:24.474Z,36.70
2019-01-31T05:43:15.439Z,39.97
2019-01-31T05:48:06.342Z,37.17
2019-01-31T05:52:57.252Z,35.00
2019-01-31T05:57:48.155Z,34.17
2019-01-31T06:02:39.091Z,34.30
2019-01-31T06:07:30.000Z,34.93
2019-01-31T06:12:20.915Z,31.77
2019-01-31T06:17:11.820Z,28.83
2019-01-31T06:22:02.765Z,29.10
2019-01-31T06:26:53.679Z,32.77
2019-01-31T06:31:44.564Z,31.73
2019-01-31T06:36:35.533Z,33.63
2019-01-31T06:41:26.424Z,27.50
2019-01-31T06:46:17.328Z,27.63
2019-01-31T06:51:08.240Z,29.30
2019-01-31T06:55:59.198Z,27.57
2019-01-31T07:00:50.110Z,28.17
2019-01-31T07:05:41.018Z,31.30
2019-01-31T07:10:31.922Z,26.37
2019-01-31T07:15:22.808Z,26.30
2019-01-31T07:20:15.420Z,28.40
2019-01-31T07:25:06.341Z,26.00
2019-01-31T07:29:57.236Z,25.07
2019-01-31T07:34:48.133Z,27.83
2019-01-31T07:39:39.830Z,23.70
2019-01-31T07:44:30.745Z,23.97
2019-01-31T07:49:21.649Z,23.93
2019-01-31T07:54:12.577Z,29.37
2019-01-31T07:59:03.474Z,27.95
2019-01-31T08:04:02.237Z,24.25
2019-01-31T08:08:45.333Z,20.60
2019-01-31T08:13:36.236Z,24.50
2019-01-31T08:18:27.217Z,27.43
2019-01-31T08:23:18.867Z,20.43
2019-01-31T08:28:09.775Z,23.50
2019-01-31T08:33:00.733Z,22.03
2019-01-31T08:37:51.735Z,25.20
2019-01-31T08:42:42.685Z,18.93
2019-01-31T08:47:33.577Z,20.20
2019-01-31T08:52:24.512Z,24.07
2019-01-31T08:57:15.499Z,23.90
2019-01-31T09:02:06.415Z,22.60
2019-01-31T09:06:57.326Z,27.80
2019-01-31T09:11:49.047Z,21.40
2019-01-31T09:16:39.949Z,21.83
2019-01-31T09:21:30.842Z,21.70
2019-01-31T09:26:38.674Z,25.07
2019-01-31T09:31:35.593Z,25.10
2019-01-31T09:36:35.831Z,19.80
2019-01-31T09:41:30.551Z,20.83
2019-01-31T09:51:47.210Z,18.70
2019-01-31T09:56:40.107Z,20.30
2019-01-31T10:07:07.067Z,18.10
2019-01-31T10:12:00.874Z,14.87
2019-01-31T10:22:25.881Z,16.48
2019-01-31T10:27:22.809Z,17.53
2019-01-31T10:32:15.593Z,17.90
2019-01-31T10:37:12.751Z,17.55
2019-01-31T10:42:11.727Z,17.40
2019-01-31T10:47:18.500Z,15.77
2019-01-31T10:52:10.276Z,19.47
2019-01-31T11:02:47.866Z,16.23
2019-01-31T11:13:12.887Z,17.85
2019-01-31T11:18:06.815Z,17.17
2019-01-31T11:22:59.679Z,15.87
2019-01-31T11:27:55.570Z,20.12
2019-01-31T11:32:54.222Z,16.30
2019-01-31T11:37:48.922Z,22.97
2019-01-31T11:42:48.797Z,15.90
2019-01-31T11:47:43.234Z,12.50
2019-01-31T11:52:40.409Z,14.80
2019-01-31T11:57:33.271Z,11.30
2019-01-31T12:02:24.183Z,14.30
2019-01-31T12:07:15.081Z,12.40
2019-01-31T12:12:06.045Z,11.85
2019-01-31T12:16:56.949Z,10.40
2019-01-31T12:21:47.857Z,10.53
2019-01-31T12:26:38.784Z,9.43
2019-01-31T12:31:29.694Z,10.60
2019-01-31T12:36:20.606Z,9.30
2019-01-31T12:41:11.542Z,9.40
2019-01-31T12:46:02.476Z,12.07
2019-01-31T12:50:53.381Z,9.40
2019-01-31T12:55:44.277Z,8.80
2019-01-31T13:00:35.179Z,10.10
2019-01-31T13:05:26.898Z,8.03
2019-01-31T13:10:17.789Z,7.17
2019-01-31T13:15:08.710Z,6.70
2019-01-31T13:19:59.601Z,7.10
2019-01-31T13:24:50.570Z,7.67
2019-01-31T13:29:41.489Z,5.87
2019-01-31T13:34:32.393Z,10.10
2019-01-31T13:39:24.043Z,8.30
2019-01-31T13:44:14.962Z,6.97
2019-01-31T13:49:05.967Z,6.60
2019-01-31T13:53:56.871Z,6.10
2019-01-31T13:58:47.778Z,8.80
2019-01-31T14:03:38.676Z,7.00
2019-01-31T14:08:29.565Z,6.93
2019-01-31T14:13:21.209Z,7.13
2019-01-31T14:18:12.115Z,7.60
2019-01-31T14:23:03.766Z,6.57
2019-01-31T14:27:55.422Z,5.97
2019-01-31T14:32:46.377Z,5.10
2019-01-31T14:37:37.327Z,5.67
2019-01-31T14:42:28.976Z,5.57
2019-01-31T14:47:20.614Z,5.00
2019-01-31T14:52:12.281Z,6.00
2019-01-31T14:57:03.191Z,6.15
2019-01-31T15:01:54.084Z,5.57
2019-01-31T15:06:45.731Z,5.07
2019-01-31T15:11:36.685Z,5.60
2019-01-31T15:16:27.661Z,5.27
2019-01-31T15:21:19.310Z,5.63
2019-01-31T15:26:10.266Z,4.80
2019-01-31T15:31:01.186Z,5.07
2019-01-31T15:35:52.131Z,5.73
2019-01-31T15:40:43.125Z,6.23
2019-01-31T15:45:34.028Z,6.20
2019-01-31T15:50:24.966Z,5.93
2019-01-31T15:55:16.955Z,5.83
2019-01-31T16:00:15.790Z,6.23
2019-01-31T16:05:06.694Z,6.70
2019-01-31T16:09:57.689Z,6.40
2019-01-31T16:14:54.862Z,7.13
2019-01-31T16:19:39.510Z,7.47
2019-01-31T16:24:30.467Z,9.52
2019-01-31T16:29:21.494Z,10.37
2019-01-31T16:34:12.455Z,9.33
2019-01-31T16:39:03.402Z,10.13
2019-01-31T16:43:55.111Z,10.63
2019-01-31T16:48:46.024Z,10.23
2019-01-31T16:53:36.943Z,10.47
2019-01-31T16:58:27.855Z,10.80
2019-01-31T17:03:18.772Z,11.57
2019-01-31T17:08:09.702Z,11.70
2019-01-31T17:13:00.601Z,10.47
2019-01-31T17:17:51.485Z,13.23
2019-01-31T17:22:50.099Z,11.23
2019-01-31T17:27:40.993Z,10.33
2019-01-31T17:32:32.693Z,12.67
2019-01-31T17:37:23.613Z,11.90
2019-01-31T17:42:14.540Z,10.70
2019-01-31T17:47:05.428Z,13.45
2019-01-31T17:51:56.341Z,10.83
2019-01-31T17:56:47.281Z,13.13
2019-01-31T18:01:38.185Z,12.03
2019-01-31T18:06:29.136Z,12.30
2019-01-31T18:11:20.037Z,11.47
2019-01-31T18:16:10.957Z,13.50
2019-01-31T18:21:01.878Z,18.73
2019-01-31T18:25:52.790Z,12.47
2019-01-31T18:30:43.720Z,12.83
2019-01-31T18:35:34.625Z,14.05
2019-01-31T18:40:33.244Z,17.70
2019-01-31T18:45:25.623Z,14.98
2019-01-31T18:50:17.249Z,14.70
2019-01-31T18:55:08.142Z,15.20
2019-01-31T18:59:59.037Z,16.27
2019-01-31T19:04:49.943Z,18.50
2019-01-31T19:09:40.863Z,14.13
2019-01-31T19:14:31.766Z,11.53
2019-01-31T19:19:22.677Z,14.60
2019-01-31T19:24:14.313Z,16.37
2019-01-31T19:29:05.286Z,16.45
2019-01-31T19:33:56.341Z,16.08
2019-01-31T19:38:47.992Z,20.23
2019-01-31T19:43:39.648Z,16.80
2019-01-31T19:48:30.551Z,17.60
2019-01-31T19:53:21.453Z,17.53
2019-01-31T19:58:13.098Z,21.80
2019-01-31T20:03:04.796Z,21.60
2019-01-31T20:07:56.451Z,18.10
2019-01-31T20:12:47.357Z,26.73
2019-01-31T20:17:38.498Z,27.50
2019-01-31T20:22:30.136Z,24.90
2019-01-31T20:27:21.786Z,23.70
2019-01-31T20:32:12.703Z,19.80
2019-01-31T20:37:04.347Z,23.70
2019-01-31T20:41:56.008Z,25.20
2019-01-31T20:46:46.919Z,21.63
2019-01-31T20:51:37.817Z,24.30
2019-01-31T20:56:28.721Z,24.83
2019-01-31T21:01:20.386Z,26.93
2019-01-31T21:06:11.291Z,29.00
2019-01-31T21:11:02.200Z,25.93
2019-01-31T21:15:53.862Z,31.20
2019-01-31T21:20:44.824Z,28.40
2019-01-31T21:25:35.835Z,29.80
2019-01-31T21:30:26.835Z,29.00
2019-01-31T21:35:17.783Z,32.90
2019-01-31T21:40:10.615Z,29.57
2019-01-31T21:45:01.581Z,37.60
2019-01-31T21:49:52.587Z,35.73
2019-01-31T22:00:02.648Z,37.05
2019-01-31T22:04:53.776Z,38.67
2019-01-31T22:09:44.721Z,38.77
2019-01-31T22:14:35.792Z,39.77
2019-01-31T22:19:26.675Z,42.90
2019-01-31T22:24:17.682Z,42.70
2019-01-31T22:29:08.621Z,45.20
2019-01-31T22:33:59.628Z,40.83
2019-01-31T22:38:50.668Z,36.97
2019-01-31T22:43:42.402Z,41.90
2019-01-31T22:48:33.305Z,44.67
2019-01-31T22:53:24.236Z,41.60
2019-01-31T22:58:15.138Z,47.60
2019-01-31T23:03:06.059Z,41.77
2019-01-31T23:13:25.833Z,54.13
2019-01-31T23:18:16.748Z,57.80
2019-01-31T23:23:07.704Z,54.47
2019-01-31T23:27:58.647Z,50.80
2019-01-31T23:32:49.628Z,58.17
2019-01-31T23:37:40.558Z,52.60
2019-01-31T23:42:31.497Z,54.67
2019-01-31T23:47:22.509Z,58.03
2019-01-31T23:52:13.416Z,50.90
2019-01-31T23:57:04.345Z,61.73
